Weather at Eds Administration Nr 2 Heliport

Public forecast

Using degrees Fahrenheit for public forecast. Weather courtesy of forecast.io.

Closest aviation weather report (METAR) to Eds Administration Nr 2 Heliport

Closest report is Majors Airport, 4.1 nm (7.7 km) E.

2024/05/28 19:35 (retrieved 33 minutes ago)

KGVT 281935Z AUTO 12009KT 10SM CLR 24/18 A3007 RMK AO2 TSNO T02380180

Closest aviation forecast (TAF) to Eds Administration Nr 2 Heliport

Closest forecast is Dallas Love Field, 38.0 nm (70.4 km) WSW.

2024/05/28 18:27 (retrieved 2 hours ago)

TAF KDAL 281724Z 2818/2918 12020G30KT P6SM VCTS FEW050CB BKN120 TEMPO 2818/2819 -TSRA FM281900 11013KT P6SM FEW050 BKN250 FM290500 09009KT P6SM VCTS OVC060CB TEMPO 2906/2910 1SM TSRA BKN025CB FM291100 11004KT 6SM BR VCSH BKN020 FM291700 14008KT P6SM OVC050